Bradford Regional Airport Bradford US
ICAO: KBFD
IATA: BFD
Category: Medium
Scheduled Services: Yes

Elevation: 2143 ft
TransAlt. 18000 ft.

Airport Communications:
ASOS:133.825
CLEVELAND CNTR:124.325
ALTOONA RDO:122.2
CTAF/UNICOM:123.075

KBFD Zoom In..

If you have problems with the map follow the link
https://www.worldairports.se/pages/airport.php?
ICAO=KBFD

Runways:

(A) RW 05 length 4499 ft width 100 ft
---- / hdg 55

(B) RW 14 length 6306 ft width 150 ft
---- / hdg 145

(C) RW 23 length 4499 ft width 100 ft
---- / hdg 235

(D) RW 32 length 6306 ft width 150 ft
ILS 108.30 / hdg 325

Location; KBFD
Day. 25 / Time. 22.53 Zulu
* Altimeter: 29.78
* Temperature: 02° c. 35.6°f.
* Wind from: 260° Speed 04 kn.
Dewpoint: 00° c.
Visibility: 10 Statute Miles.
Clouds: Broken 700 ft.
Clouds: Overcast 1300 ft.

KBFD 252253Z AUTO 26004KT 10SM BKN007 OVC013 02/00 A2978 RMK AO2 RAE36 SLP101 P0001 T00170000


Wind From 260°
Speed 04 kn.

 
 
jpsmedia worldairports.se 2020   terms of use